TimeHST,TemperatureF,Dew PointF,Humidity,Sea Level PressureIn,VisibilityMPH,Wind Direction,Wind SpeedMPH,Gust SpeedMPH,PrecipitationIn,Events,Conditions,WindDirDegrees,DateUTC
12:54 AM,68.0,63.0,84,30.02,10.0,NE,4.6,-,N/A,,Clear,40,2013-03-26 10:54:00
1:54 AM,64.9,61.0,87,30.01,10.0,NE,4.6,-,N/A,,Clear,50,2013-03-26 11:54:00
2:54 AM,64.9,62.1,90,29.99,10.0,Calm,Calm,-,N/A,,Clear,0,2013-03-26 12:54:00
3:54 AM,64.9,62.1,90,29.98,10.0,North,6.9,-,N/A,,Clear,360,2013-03-26 13:54:00
4:54 AM,64.9,61.0,87,29.99,10.0,NNE,3.5,-,N/A,,Clear,30,2013-03-26 14:54:00
5:54 AM,64.9,61.0,87,30.01,10.0,NNE,4.6,-,N/A,,Clear,30,2013-03-26 15:54:00
6:54 AM,66.9,62.1,84,30.04,10.0,NNE,5.8,-,N/A,,Clear,30,2013-03-26 16:54:00
7:54 AM,71.1,64.9,81,30.05,10.0,NE,6.9,-,N/A,,Clear,50,2013-03-26 17:54:00
8:54 AM,73.0,64.0,73,30.07,10.0,SE,3.5,-,N/A,,Partly Cloudy,130,2013-03-26 18:54:00
9:54 AM,73.9,64.0,71,30.08,10.0,SW,3.5,-,N/A,,Partly Cloudy,220,2013-03-26 19:54:00
10:54 AM,77.0,66.9,71,30.07,10.0,North,6.9,-,N/A,,Partly Cloudy,350,2013-03-26 20:54:00
11:54 AM,77.0,66.0,69,30.06,10.0,NNE,9.2,17.3,N/A,,Mostly Cloudy,20,2013-03-26 21:54:00
12:54 PM,78.1,66.0,66,30.04,10.0,North,11.5,-,N/A,,Partly Cloudy,10,2013-03-26 22:54:00
1:54 PM,78.1,66.9,68,30.01,10.0,North,9.2,-,N/A,,Scattered Clouds,10,2013-03-26 23:54:00
2:54 PM,75.9,66.0,71,30.00,10.0,NNE,9.2,-,N/A,,Mostly Cloudy,20,2013-03-27 00:54:00
3:54 PM,75.0,64.9,71,29.99,10.0,NNE,8.1,-,N/A,,Overcast,30,2013-03-27 01:54:00
4:54 PM,73.9,66.0,76,30.00,10.0,NNE,10.4,-,N/A,,Overcast,20,2013-03-27 02:54:00
5:54 PM,72.0,66.0,81,30.01,10.0,NNE,8.1,-,N/A,,Mostly Cloudy,20,2013-03-27 03:54:00
6:54 PM,71.1,64.9,81,30.03,10.0,NE,6.9,-,N/A,,Partly Cloudy,40,2013-03-27 04:54:00
7:54 PM,70.0,64.9,84,30.03,10.0,NNE,9.2,-,N/A,,Clear,30,2013-03-27 05:54:00
8:54 PM,70.0,64.9,84,30.06,10.0,NNE,5.8,-,N/A,,Clear,20,2013-03-27 06:54:00
9:54 PM,70.0,66.0,87,30.06,10.0,NNE,5.8,-,N/A,,Partly Cloudy,20,2013-03-27 07:54:00
10:54 PM,70.0,66.0,87,30.06,10.0,North,8.1,-,N/A,,Clear,10,2013-03-27 08:54:00
11:54 PM,69.1,64.0,84,30.04,10.0,NNE,8.1,-,N/A,,Clear,30,2013-03-27 09:54:00